Time;durP1;ratioP1;P1;durP2;ratioP2;P2;SDS_P1;SDS_P2;PMS_P1;PMS_P2;Temp;Humidity;BMP_temperature;BMP_pressure;BME280_temperature;BME280_humidity;BME280_pressure;Samples;Min_cycle;Max_cycle;Signal;HPM_P1;HPM_P2
2023/07/05 00:00:23;0.00;0.00;0.62;0.00;0.00;0.62;2.93;2.40;;;29.70;24.00;;;;;;2224042;62;20820;-63
2023/07/05 00:03:08;0.00;0.00;0.62;0.00;0.00;0.62;3.17;2.10;;;29.70;24.00;;;;;;2223471;62;20373;-62
2023/07/05 00:05:53;0.00;0.00;0.62;0.00;0.00;0.62;3.10;2.17;;;29.70;24.00;;;;;;2224440;62;20985;-63
2023/07/05 00:08:37;0.00;0.00;0.62;0.00;0.00;0.62;4.70;2.70;;;29.70;24.00;;;;;;2223872;62;20510;-63
2023/07/05 00:11:22;0.00;0.00;0.62;0.00;0.00;0.62;3.10;2.33;;;29.70;24.00;;;;;;2223763;62;20921;-62
2023/07/05 00:14:10;0.00;0.00;0.62;0.00;0.00;0.62;4.57;2.50;;;29.70;24.00;;;;;;2224471;62;20388;-66
2023/07/05 00:16:56;0.00;0.00;0.62;0.00;0.00;0.62;4.10;2.10;;;29.70;24.00;;;;;;2224272;62;20454;-63
2023/07/05 00:19:41;0.00;0.00;0.62;0.00;0.00;0.62;2.50;1.97;;;29.70;24.00;;;;;;2223856;62;20381;-61
2023/07/05 00:22:27;0.00;0.00;0.62;0.00;0.00;0.62;3.13;2.30;;;29.70;24.00;;;;;;2224146;62;20373;-62
2023/07/05 00:25:11;0.00;0.00;0.62;0.00;0.00;0.62;3.50;2.10;;;29.70;24.00;;;;;;2223358;62;20481;-61
2023/07/05 00:27:56;0.00;0.00;0.62;0.00;0.00;0.62;2.73;2.37;;;29.70;24.00;;;;;;2224463;62;20453;-63
2023/07/05 00:30:43;0.00;0.00;0.62;0.00;0.00;0.62;2.33;1.77;;;29.70;24.00;;;;;;2223772;62;20369;-62
2023/07/05 00:33:31;0.00;0.00;0.62;0.00;0.00;0.62;3.40;2.00;;;29.70;24.00;;;;;;2224199;62;20449;-60
2023/07/05 00:36:16;0.00;0.00;0.62;0.00;0.00;0.62;2.73;2.10;;;29.70;24.00;;;;;;2224589;62;20460;-63
2023/07/05 00:39:00;0.00;0.00;0.62;0.00;0.00;0.62;2.43;2.23;;;29.70;24.00;;;;;;2223868;62;20373;-63
2023/07/05 00:41:46;0.00;0.00;0.62;0.00;0.00;0.62;3.10;2.17;;;29.60;23.90;;;;;;2224632;62;20397;-62
2023/07/05 00:44:30;0.00;0.00;0.62;0.00;0.00;0.62;4.07;2.30;;;29.60;23.90;;;;;;2224950;62;20397;-61
2023/07/05 00:47:23;0.00;0.00;0.62;0.00;0.00;0.62;2.73;1.87;;;29.60;23.90;;;;;;2224146;62;20373;-62
2023/07/05 00:50:20;0.00;0.00;0.62;0.00;0.00;0.62;3.17;2.47;;;29.60;24.00;;;;;;2224591;62;20960;-62
2023/07/05 00:53:06;0.00;0.00;0.62;0.00;0.00;0.62;3.27;1.93;;;29.60;23.90;;;;;;2224796;62;20373;-63
2023/07/05 00:55:57;0.00;0.00;0.62;0.00;0.00;0.62;3.20;2.43;;;29.60;23.90;;;;;;2224253;62;20437;-61
2023/07/05 00:58:42;0.00;0.00;0.62;0.00;0.00;0.62;2.43;2.23;;;29.60;24.50;;;;;;2224153;62;20377;-63
2023/07/05 01:01:28;0.00;0.00;0.62;0.00;0.00;0.62;2.90;1.93;;;29.60;23.90;;;;;;2224530;62;20485;-62
2023/07/05 01:04:13;0.00;0.00;0.62;0.00;0.00;0.62;2.90;2.13;;;29.60;24.00;;;;;;2224986;62;20409;-61
2023/07/05 01:06:59;0.00;0.00;0.62;0.00;0.00;0.62;3.20;2.13;;;29.60;23.90;;;;;;2224472;62;20421;-61
2023/07/05 01:09:46;0.00;0.00;0.62;0.00;0.00;0.62;3.53;2.40;;;29.60;24.00;;;;;;2223470;62;20374;-63
2023/07/05 01:12:39;0.00;0.00;0.62;0.00;0.00;0.62;2.53;2.33;;;29.60;24.00;;;;;;2224524;62;20422;-61
2023/07/05 01:15:31;0.00;0.00;0.62;0.00;0.00;0.62;2.30;1.90;;;29.60;23.90;;;;;;2224867;62;20381;-63
2023/07/05 01:18:25;0.00;0.00;0.62;0.00;0.00;0.62;3.83;2.07;;;29.60;24.00;;;;;;2223643;62;20420;-64
2023/07/05 01:21:18;0.00;0.00;0.62;0.00;0.00;0.62;2.60;2.30;;;29.60;24.00;;;;;;2224355;62;20400;-60
2023/07/05 01:25:00;0.00;0.00;0.62;0.00;0.00;0.62;3.17;2.50;;;29.60;24.00;;;;;;2223579;62;20449;-60
2023/07/05 01:28:32;0.00;0.00;0.62;0.00;0.00;0.62;2.90;2.10;;;29.60;24.00;;;;;;2224846;62;20931;-64
2023/07/05 01:31:47;0.00;0.00;0.62;0.00;0.00;0.62;2.80;2.20;;;29.60;24.00;;;;;;2223952;62;20514;-63
2023/07/05 01:34:43;0.00;0.00;0.62;0.00;0.00;0.62;2.83;2.33;;;29.60;24.00;;;;;;2224672;62;20476;-61
2023/07/05 01:37:34;0.00;0.00;0.62;0.00;0.00;0.62;2.47;2.17;;;29.60;24.00;;;;;;2225177;62;20462;-62
2023/07/05 01:41:01;0.00;0.00;0.62;0.00;0.00;0.62;3.20;2.57;;;29.50;24.00;;;;;;2223700;62;20370;-61
2023/07/05 01:43:46;0.00;0.00;0.62;0.00;0.00;0.62;2.33;1.90;;;29.50;24.00;;;;;;2221798;62;20396;-63
2023/07/05 01:46:41;0.00;0.00;0.62;0.00;0.00;0.62;3.53;2.70;;;29.50;24.50;;;;;;2223999;62;20409;-62
2023/07/05 01:49:42;0.00;0.00;0.62;0.00;0.00;0.62;2.73;2.10;;;29.50;24.00;;;;;;2224346;62;20425;-61
2023/07/05 01:52:36;0.00;0.00;0.62;0.00;0.00;0.62;3.63;2.23;;;29.50;24.00;;;;;;2224753;62;20372;-63
2023/07/05 01:55:28;0.00;0.00;0.62;0.00;0.00;0.62;3.20;2.27;;;29.50;24.00;;;;;;2224016;62;20886;-63
2023/07/05 01:58:18;0.00;0.00;0.62;0.00;0.00;0.62;3.07;2.30;;;29.50;24.00;;;;;;2224746;62;20906;-63
2023/07/05 02:01:06;0.00;0.00;0.62;0.00;0.00;0.62;2.57;2.13;;;29.50;24.00;;;;;;2223364;62;20392;-64
2023/07/05 02:03:53;0.00;0.00;0.62;0.00;0.00;0.62;3.00;2.20;;;29.50;24.60;;;;;;2221548;62;20947;-64
2023/07/05 02:06:40;0.00;0.00;0.62;0.00;0.00;0.62;3.13;2.40;;;29.50;24.00;;;;;;2224488;62;20409;-61
2023/07/05 02:09:25;0.00;0.00;0.62;0.00;0.00;0.62;3.10;2.70;;;29.50;24.00;;;;;;2223583;62;20384;-61
2023/07/05 02:12:10;0.00;0.00;0.62;0.00;0.00;0.62;2.50;2.10;;;29.50;24.00;;;;;;2224772;62;20533;-61
2023/07/05 02:14:56;0.00;0.00;0.62;0.00;0.00;0.62;2.80;2.07;;;29.50;24.00;;;;;;2224539;62;20393;-62
2023/07/05 02:17:41;0.00;0.00;0.62;0.00;0.00;0.62;3.00;2.30;;;29.50;24.00;;;;;;2224203;62;20412;-63
2023/07/05 02:20:28;0.00;0.00;0.62;0.00;0.00;0.62;3.40;2.30;;;29.50;24.00;;;;;;2223665;62;20377;-65
2023/07/05 02:23:13;0.00;0.00;0.62;0.00;0.00;0.62;3.70;2.77;;;29.50;24.00;;;;;;2223757;62;20985;-65
2023/07/05 02:26:04;0.00;0.00;0.62;0.00;0.00;0.62;3.50;2.60;;;29.50;24.00;;;;;;2224798;62;20509;-64
2023/07/05 02:28:49;0.00;0.00;0.62;0.00;0.00;0.62;3.17;2.27;;;29.50;24.00;;;;;;2224285;62;20813;-64
2023/07/05 02:31:34;0.00;0.00;0.62;0.00;0.00;0.62;2.30;1.97;;;29.50;24.00;;;;;;2223544;62;20369;-60
2023/07/05 02:34:19;0.00;0.00;0.62;0.00;0.00;0.62;2.73;2.37;;;29.50;24.10;;;;;;2224317;62;20392;-62
2023/07/05 02:37:06;0.00;0.00;0.62;0.00;0.00;0.62;3.20;2.40;;;29.50;24.10;;;;;;2224513;62;20422;-60
2023/07/05 02:39:54;0.00;0.00;0.62;0.00;0.00;0.62;2.47;2.17;;;29.50;24.00;;;;;;2223880;62;20425;-62
2023/07/05 02:42:39;0.00;0.00;0.62;0.00;0.00;0.62;2.47;2.10;;;29.50;24.10;;;;;;2224371;62;20811;-59
2023/07/05 02:45:23;0.00;0.00;0.62;0.00;0.00;0.62;2.60;2.27;;;29.50;24.00;;;;;;2223953;62;20368;-64
2023/07/05 02:48:08;0.00;0.00;0.62;0.00;0.00;0.62;3.03;2.70;;;29.50;24.10;;;;;;2224142;62;20781;-62
2023/07/05 02:50:53;0.00;0.00;0.62;0.00;0.00;0.62;2.80;2.40;;;29.50;24.10;;;;;;2224005;62;20501;-61
2023/07/05 02:53:39;0.00;0.00;0.62;0.00;0.00;0.62;4.03;3.13;;;29.50;24.10;;;;;;2223607;62;20806;-60
2023/07/05 02:56:25;0.00;0.00;0.62;0.00;0.00;0.62;2.80;2.40;;;29.50;24.10;;;;;;2224095;62;20512;-63
2023/07/05 02:59:09;0.00;0.00;0.62;0.00;0.00;0.62;3.00;2.57;;;29.50;24.10;;;;;;2223979;62;20377;-61
2023/07/05 03:01:54;0.00;0.00;0.62;0.00;0.00;0.62;3.03;2.70;;;29.50;24.10;;;;;;2223620;62;20400;-62
2023/07/05 03:04:42;0.00;0.00;0.62;0.00;0.00;0.62;2.50;2.13;;;29.50;24.10;;;;;;2221382;62;20424;-62
2023/07/05 03:07:27;0.00;0.00;0.62;0.00;0.00;0.62;3.60;2.80;;;29.50;24.10;;;;;;2224353;62;20876;-62
2023/07/05 03:10:14;0.00;0.00;0.62;0.00;0.00;0.62;3.37;2.43;;;29.40;24.10;;;;;;2224074;62;20782;-61
2023/07/05 03:12:59;0.00;0.00;0.62;0.00;0.00;0.62;2.90;2.40;;;29.50;24.10;;;;;;2224361;62;20373;-64
2023/07/05 03:15:43;0.00;0.00;0.62;0.00;0.00;0.62;3.00;2.40;;;29.50;24.10;;;;;;2220460;62;20406;-64
2023/07/05 03:18:29;0.00;0.00;0.62;0.00;0.00;0.62;3.23;2.93;;;29.50;24.20;;;;;;2224107;62;20905;-64
2023/07/05 03:21:13;0.00;0.00;0.62;0.00;0.00;0.62;2.80;2.60;;;29.40;24.10;;;;;;2221225;62;20538;-64
2023/07/05 03:24:05;0.00;0.00;0.62;0.00;0.00;0.62;4.17;2.40;;;29.50;24.20;;;;;;2234071;56;20439;-64
2023/07/05 03:26:52;0.00;0.00;0.62;0.00;0.00;0.62;3.90;2.80;;;29.40;24.10;;;;;;2225560;62;20441;-64
2023/07/05 03:29:38;0.00;0.00;0.62;0.00;0.00;0.62;2.70;2.40;;;29.40;24.10;;;;;;2223202;62;20537;-64
2023/07/05 03:32:22;0.00;0.00;0.62;0.00;0.00;0.62;2.87;2.13;;;29.40;24.10;;;;;;2223922;62;20411;-64
2023/07/05 03:35:07;0.00;0.00;0.62;0.00;0.00;0.62;3.40;2.60;;;29.40;24.10;;;;;;2223874;62;20431;-65
2023/07/05 03:37:52;0.00;0.00;0.62;0.00;0.00;0.62;2.60;2.40;;;29.40;24.20;;;;;;2220424;62;20949;-64
2023/07/05 03:40:37;0.00;0.00;0.62;0.00;0.00;0.62;3.00;2.70;;;29.40;24.20;;;;;;2224080;62;20838;-63
2023/07/05 03:43:24;0.00;0.00;0.62;0.00;0.00;0.62;3.90;2.90;;;29.40;24.20;;;;;;2224525;62;20881;-65
2023/07/05 03:46:13;0.00;0.00;0.62;0.00;0.00;0.62;2.97;2.70;;;29.40;24.20;;;;;;2223460;62;20433;-64
2023/07/05 03:48:57;0.00;0.00;0.62;0.00;0.00;0.62;3.50;2.73;;;29.40;24.20;;;;;;2224067;62;20798;-64
2023/07/05 03:51:42;0.00;0.00;0.62;0.00;0.00;0.62;3.10;2.80;;;29.40;24.20;;;;;;2223952;62;20725;-62
2023/07/05 03:54:28;0.00;0.00;0.62;0.00;0.00;0.62;3.60;3.30;;;29.40;24.20;;;;;;2224432;62;20437;-63
2023/07/05 03:57:13;0.00;0.00;0.62;0.00;0.00;0.62;3.33;2.70;;;29.40;24.20;;;;;;2224496;62;20461;-62
2023/07/05 03:59:59;0.00;0.00;0.62;0.00;0.00;0.62;4.10;2.80;;;29.40;24.20;;;;;;2223155;62;20434;-62
2023/07/05 04:02:44;0.00;0.00;0.62;0.00;0.00;0.62;3.30;2.90;;;29.40;24.20;;;;;;2224535;62;20416;-62
2023/07/05 04:05:28;0.00;0.00;0.62;0.00;0.00;0.62;4.00;2.87;;;29.40;24.20;;;;;;2221579;62;20421;-62
2023/07/05 04:08:13;0.00;0.00;0.62;0.00;0.00;0.62;3.10;2.80;;;29.40;24.30;;;;;;2224544;62;20904;-60
2023/07/05 04:10:58;0.00;0.00;0.62;0.00;0.00;0.62;3.33;3.00;;;29.40;24.20;;;;;;2225187;62;20917;-62
2023/07/05 04:13:44;0.00;0.00;0.62;0.00;0.00;0.62;3.37;2.50;;;29.40;24.20;;;;;;2224626;62;20396;-65
2023/07/05 04:16:30;0.00;0.00;0.62;0.00;0.00;0.62;3.10;2.80;;;29.40;24.20;;;;;;2224774;62;20378;-63
2023/07/05 04:19:15;0.00;0.00;0.62;0.00;0.00;0.62;3.70;2.90;;;29.40;24.20;;;;;;2224689;62;20377;-63
2023/07/05 04:22:00;0.00;0.00;0.62;0.00;0.00;0.62;4.10;3.10;;;29.40;24.20;;;;;;2224209;62;20721;-62
2023/07/05 04:24:45;0.00;0.00;0.62;0.00;0.00;0.62;3.33;2.60;;;29.40;24.20;;;;;;2226113;62;20933;-62
2023/07/05 04:27:29;0.00;0.00;0.62;0.00;0.00;0.62;4.07;3.50;;;29.40;24.20;;;;;;2228915;62;20425;-62
2023/07/05 04:30:14;0.00;0.00;0.62;0.00;0.00;0.62;5.47;3.67;;;29.40;24.20;;;;;;2227796;62;20800;-63
2023/07/05 04:33:00;0.00;0.00;0.62;0.00;0.00;0.62;4.00;3.60;;;29.40;24.20;;;;;;2228737;62;20943;-62
2023/07/05 04:35:46;0.00;0.00;0.62;0.00;0.00;0.62;3.27;2.77;;;29.30;24.20;;;;;;2228986;62;20427;-63
2023/07/05 04:38:30;0.00;0.00;0.62;0.00;0.00;0.62;3.77;3.37;;;29.30;24.20;;;;;;2227956;62;20389;-62
2023/07/05 04:41:15;0.00;0.00;0.62;0.00;0.00;0.62;3.40;3.10;;;29.30;24.20;;;;;;2228676;62;20397;-67
2023/07/05 04:44:00;0.00;0.00;0.62;0.00;0.00;0.62;3.43;3.03;;;29.40;24.30;;;;;;2227953;62;20421;-62
2023/07/05 04:46:45;0.00;0.00;0.62;0.00;0.00;0.62;3.80;3.40;;;29.30;24.20;;;;;;2229089;62;20372;-63
2023/07/05 04:49:31;0.00;0.00;0.62;0.00;0.00;0.62;3.90;3.50;;;29.30;24.30;;;;;;2225176;62;20828;-62
2023/07/05 04:52:16;0.00;0.00;0.62;0.00;0.00;0.62;4.40;4.00;;;29.40;24.60;;;;;;2228185;62;21005;-61
2023/07/05 04:55:01;0.00;0.00;0.62;0.00;0.00;0.62;4.57;3.60;;;29.40;24.30;;;;;;2228564;62;20475;-64
2023/07/05 04:57:45;0.00;0.00;0.62;0.00;0.00;0.62;4.00;3.60;;;29.30;24.20;;;;;;2225850;62;20662;-61
2023/07/05 05:00:30;0.00;0.00;0.62;0.00;0.00;0.62;4.30;3.80;;;29.30;24.20;;;;;;2228015;62;20796;-63
2023/07/05 05:03:16;0.00;0.00;0.62;0.00;0.00;0.62;4.30;3.90;;;29.30;24.20;;;;;;2228722;62;20396;-62
2023/07/05 05:06:03;0.00;0.00;0.62;0.00;0.00;0.62;4.87;4.37;;;29.30;24.30;;;;;;2228093;62;20983;-62
2023/07/05 05:08:47;0.00;0.00;0.62;0.00;0.00;0.62;4.10;3.63;;;29.30;24.20;;;;;;2228531;62;20413;-62
2023/07/05 05:11:32;0.00;0.00;0.62;0.00;0.00;0.62;4.10;3.70;;;29.30;24.80;;;;;;2228878;62;20367;-61
2023/07/05 05:14:16;0.00;0.00;0.62;0.00;0.00;0.62;4.43;4.03;;;29.30;24.30;;;;;;2227918;62;20464;-62
2023/07/05 05:17:01;0.00;0.00;0.62;0.00;0.00;0.62;4.60;4.20;;;29.30;24.30;;;;;;2228626;62;20585;-63
2023/07/05 05:19:46;0.00;0.00;0.62;0.00;0.00;0.62;4.87;3.90;;;29.30;24.30;;;;;;2228365;62;20377;-62
2023/07/05 05:22:32;0.00;0.00;0.62;0.00;0.00;0.62;4.80;3.90;;;29.30;24.30;;;;;;2227754;62;20804;-62
2023/07/05 05:25:16;0.00;0.00;0.62;0.00;0.00;0.62;4.17;3.77;;;29.30;24.30;;;;;;2228626;62;20404;-67
2023/07/05 05:28:01;0.00;0.00;0.62;0.00;0.00;0.62;5.03;4.40;;;29.30;24.30;;;;;;2228342;62;20413;-62
2023/07/05 05:30:46;0.00;0.00;0.62;0.00;0.00;0.62;5.70;5.10;;;29.30;24.30;;;;;;2228617;62;20596;-61
2023/07/05 05:33:31;0.00;0.00;0.62;0.00;0.00;0.62;4.77;4.30;;;29.30;24.30;;;;;;2294737;48;20376;-63
2023/07/05 05:36:16;0.00;0.00;0.62;0.00;0.00;0.62;5.03;4.30;;;29.30;24.30;;;;;;2235772;62;20466;-62
2023/07/05 05:39:02;0.00;0.00;0.62;0.00;0.00;0.62;5.20;4.60;;;29.30;24.40;;;;;;2236101;62;20373;-62
2023/07/05 05:41:47;0.00;0.00;0.62;0.00;0.00;0.62;5.83;4.60;;;29.30;24.30;;;;;;2236630;62;20913;-62
2023/07/05 05:44:31;0.00;0.00;0.62;0.00;0.00;0.62;5.60;4.97;;;29.30;24.40;;;;;;2235612;62;20474;-62
2023/07/05 05:47:16;0.00;0.00;0.62;0.00;0.00;0.62;5.57;4.90;;;29.30;24.40;;;;;;2236632;62;20467;-62
2023/07/05 05:50:01;0.00;0.00;0.62;0.00;0.00;0.62;4.80;4.30;;;29.30;24.40;;;;;;2235844;62;20414;-61
2023/07/05 05:52:45;0.00;0.00;0.62;0.00;0.00;0.62;5.77;5.23;;;29.30;24.50;;;;;;2236254;62;20379;-62
2023/07/05 05:55:31;0.00;0.00;0.62;0.00;0.00;0.62;4.77;4.33;;;29.30;24.50;;;;;;2236661;62;20363;-62
2023/07/05 05:58:16;0.00;0.00;0.62;0.00;0.00;0.62;5.40;4.90;;;29.30;24.50;;;;;;2235582;62;20436;-62
2023/07/05 06:01:01;0.00;0.00;0.62;0.00;0.00;0.62;5.53;5.03;;;29.20;24.40;;;;;;2236308;62;20458;-62
2023/07/05 06:03:46;0.00;0.00;0.62;0.00;0.00;0.62;5.47;4.70;;;29.20;24.50;;;;;;2236576;62;20390;-62
2023/07/05 06:06:31;0.00;0.00;0.62;0.00;0.00;0.62;5.23;4.73;;;29.30;24.50;;;;;;2235534;62;20969;-62
2023/07/05 06:09:15;0.00;0.00;0.62;0.00;0.00;0.62;5.60;4.77;;;29.30;24.50;;;;;;2236050;62;20467;-64
2023/07/05 06:12:02;0.00;0.00;0.62;0.00;0.00;0.62;4.87;4.00;;;29.30;24.50;;;;;;2236280;62;20874;-62
2023/07/05 06:14:47;0.00;0.00;0.62;0.00;0.00;0.62;4.90;4.37;;;29.20;24.50;;;;;;2236137;62;20430;-63
2023/07/05 06:17:31;0.00;0.00;0.62;0.00;0.00;0.62;5.00;4.50;;;29.20;24.50;;;;;;2236549;62;20520;-62
2023/07/05 06:20:16;0.00;0.00;0.62;0.00;0.00;0.62;5.10;4.60;;;29.30;24.50;;;;;;2235217;62;20918;-62
2023/07/05 06:23:03;0.00;0.00;0.62;0.00;0.00;0.62;5.47;4.87;;;29.30;24.50;;;;;;2236396;62;20425;-64
2023/07/05 06:25:48;0.00;0.00;0.62;0.00;0.00;0.62;4.83;4.33;;;29.20;24.50;;;;;;2236271;62;20443;-63
2023/07/05 06:28:34;0.00;0.00;0.62;0.00;0.00;0.62;4.57;4.10;;;29.20;24.50;;;;;;2235272;62;20879;-62
2023/07/05 06:31:19;0.00;0.00;0.62;0.00;0.00;0.62;5.00;4.40;;;29.20;24.50;;;;;;2236613;62;20492;-62
2023/07/05 06:34:04;0.00;0.00;0.62;0.00;0.00;0.62;5.00;4.20;;;29.20;24.50;;;;;;2236177;62;20394;-62
2023/07/05 06:36:49;0.00;0.00;0.62;0.00;0.00;0.62;4.97;4.47;;;29.20;24.50;;;;;;2236291;62;20374;-62
2023/07/05 06:39:33;0.00;0.00;0.62;0.00;0.00;0.62;4.33;3.93;;;29.20;24.50;;;;;;2235975;62;20414;-62
2023/07/05 06:42:18;0.00;0.00;0.62;0.00;0.00;0.62;4.33;3.70;;;29.20;24.50;;;;;;2235435;62;20469;-62
2023/07/05 06:45:06;0.00;0.00;0.62;0.00;0.00;0.62;4.40;3.83;;;29.20;24.50;;;;;;2233422;62;20434;-63
2023/07/05 06:47:51;0.00;0.00;0.62;0.00;0.00;0.62;4.30;3.70;;;29.20;24.50;;;;;;2236374;62;20386;-62
2023/07/05 06:50:36;0.00;0.00;0.62;0.00;0.00;0.62;4.73;4.23;;;29.20;24.50;;;;;;2235149;62;20365;-63
2023/07/05 06:53:22;0.00;0.00;0.62;0.00;0.00;0.62;4.17;3.77;;;29.20;24.50;;;;;;2236341;62;20386;-61
2023/07/05 06:56:09;0.00;0.00;0.62;0.00;0.00;0.62;4.60;4.07;;;29.20;24.50;;;;;;2236215;62;20410;-62
2023/07/05 06:58:55;0.00;0.00;0.62;0.00;0.00;0.62;3.97;3.40;;;29.20;24.50;;;;;;2231302;62;20515;-62
2023/07/05 07:01:42;0.00;0.00;0.62;0.00;0.00;0.62;4.00;3.40;;;29.20;24.50;;;;;;2236378;62;20382;-61
2023/07/05 07:04:28;0.00;0.00;0.62;0.00;0.00;0.62;4.80;3.43;;;29.20;24.50;;;;;;2235442;62;20487;-62
2023/07/05 07:07:13;0.00;0.00;0.62;0.00;0.00;0.62;4.17;3.70;;;29.20;24.50;;;;;;2236327;62;20853;-62
2023/07/05 07:10:00;0.00;0.00;0.62;0.00;0.00;0.62;3.87;3.40;;;29.20;24.50;;;;;;2235840;62;20731;-62
2023/07/05 07:12:45;0.00;0.00;0.62;0.00;0.00;0.62;3.90;3.50;;;29.20;24.50;;;;;;2235538;62;20362;-62
2023/07/05 07:15:29;0.00;0.00;0.62;0.00;0.00;0.62;3.60;3.00;;;29.20;24.50;;;;;;2236340;62;20369;-62
2023/07/05 07:18:15;0.00;0.00;0.62;0.00;0.00;0.62;4.03;3.40;;;29.20;24.50;;;;;;2235698;62;20395;-62
2023/07/05 07:21:02;0.00;0.00;0.62;0.00;0.00;0.62;3.50;2.83;;;29.20;24.50;;;;;;2235641;62;20426;-62
2023/07/05 07:24:19;0.00;0.00;0.62;0.00;0.00;0.62;3.17;2.87;;;29.20;24.60;;;;;;2240232;56;20409;-63
2023/07/05 07:27:05;0.00;0.00;0.62;0.00;0.00;0.62;3.00;2.47;;;29.20;24.70;;;;;;2236850;62;20390;-62
2023/07/05 07:29:52;0.00;0.00;0.62;0.00;0.00;0.62;2.60;2.30;;;29.20;24.60;;;;;;2235871;62;20430;-62
2023/07/05 07:32:37;0.00;0.00;0.62;0.00;0.00;0.62;2.70;2.33;;;29.20;24.60;;;;;;2236155;62;20366;-62
2023/07/05 07:35:24;0.00;0.00;0.62;0.00;0.00;0.62;3.70;2.50;;;29.20;24.60;;;;;;2231792;62;20875;-62
2023/07/05 07:38:09;0.00;0.00;0.62;0.00;0.00;0.62;2.80;2.47;;;29.20;24.50;;;;;;2232451;62;20371;-61
2023/07/05 07:40:53;0.00;0.00;0.62;0.00;0.00;0.62;3.53;2.70;;;29.20;24.50;;;;;;2232791;62;20546;-62
2023/07/05 07:43:38;0.00;0.00;0.62;0.00;0.00;0.62;2.80;2.30;;;29.20;24.50;;;;;;2233262;62;20395;-62
2023/07/05 07:46:24;0.00;0.00;0.62;0.00;0.00;0.62;3.20;2.60;;;29.20;24.50;;;;;;2233698;62;20787;-62
2023/07/05 07:49:10;0.00;0.00;0.62;0.00;0.00;0.62;3.07;2.47;;;29.20;24.50;;;;;;2232501;62;20400;-62
2023/07/05 07:51:56;0.00;0.00;0.62;0.00;0.00;0.62;2.90;2.43;;;29.20;24.50;;;;;;2233416;62;20855;-62
2023/07/05 07:54:42;0.00;0.00;0.62;0.00;0.00;0.62;3.63;2.50;;;29.20;24.50;;;;;;2233389;62;20395;-62
2023/07/05 07:57:27;0.00;0.00;0.62;0.00;0.00;0.62;2.33;1.97;;;29.20;24.50;;;;;;2232719;62;20375;-62
2023/07/05 08:00:12;0.00;0.00;0.62;0.00;0.00;0.62;2.80;2.33;;;29.20;24.50;;;;;;2233265;62;20367;-62
2023/07/05 08:03:00;0.00;0.00;0.62;0.00;0.00;0.62;3.03;2.73;;;29.20;24.50;;;;;;2233054;62;20455;-61
2023/07/05 08:05:51;0.00;0.00;0.62;0.00;0.00;0.62;2.53;2.10;;;29.20;24.50;;;;;;2233407;62;20375;-63
2023/07/05 08:08:39;0.00;0.00;0.62;0.00;0.00;0.62;3.00;2.60;;;29.20;24.50;;;;;;2233086;62;20359;-62
2023/07/05 08:11:24;0.00;0.00;0.62;0.00;0.00;0.62;2.73;2.40;;;29.20;24.50;;;;;;2232797;62;20371;-62
2023/07/05 08:14:13;0.00;0.00;0.62;0.00;0.00;0.62;2.93;2.40;;;29.20;24.50;;;;;;2233300;62;20419;-62
2023/07/05 08:16:58;0.00;0.00;0.62;0.00;0.00;0.62;3.23;2.57;;;29.20;24.50;;;;;;2233556;62;20371;-62
2023/07/05 08:19:43;0.00;0.00;0.62;0.00;0.00;0.62;2.50;2.13;;;29.20;24.50;;;;;;2232378;62;20367;-62
2023/07/05 08:22:28;0.00;0.00;0.62;0.00;0.00;0.62;2.67;2.17;;;29.20;24.50;;;;;;2233282;62;20499;-62
2023/07/05 08:25:15;0.00;0.00;0.62;0.00;0.00;0.62;2.60;2.03;;;29.20;24.50;;;;;;2235332;62;20863;-61
2023/07/05 08:28:00;0.00;0.00;0.62;0.00;0.00;0.62;3.10;2.40;;;29.20;24.50;;;;;;2237222;62;20370;-62
2023/07/05 08:30:51;0.00;0.00;0.62;0.00;0.00;0.62;2.37;1.83;;;29.20;24.50;;;;;;2237315;62;20382;-62
2023/07/05 08:33:37;0.00;0.00;0.62;0.00;0.00;0.62;2.60;2.30;;;29.20;24.50;;;;;;2236436;62;20467;-61
2023/07/05 08:36:33;0.00;0.00;0.62;0.00;0.00;0.62;2.90;2.47;;;29.20;24.50;;;;;;2237392;62;20395;-62
2023/07/05 08:39:18;0.00;0.00;0.62;0.00;0.00;0.62;3.47;2.53;;;29.20;24.50;;;;;;2237011;62;20492;-62
2023/07/05 08:42:20;0.00;0.00;0.62;0.00;0.00;0.62;2.50;1.93;;;29.20;24.50;;;;;;2236356;62;20415;-62
2023/07/05 08:45:17;0.00;0.00;0.62;0.00;0.00;0.62;2.67;2.07;;;29.20;24.50;;;;;;2237362;62;20393;-62
2023/07/05 08:48:05;0.00;0.00;0.62;0.00;0.00;0.62;3.83;2.50;;;29.20;24.50;;;;;;2236542;62;20374;-64
2023/07/05 08:50:56;0.00;0.00;0.62;0.00;0.00;0.62;2.97;2.20;;;29.20;24.50;;;;;;2236976;62;20918;-64
2023/07/05 08:53:47;0.00;0.00;0.62;0.00;0.00;0.62;2.40;1.90;;;29.10;24.40;;;;;;2236630;62;20381;-63
2023/07/05 08:56:38;0.00;0.00;0.62;0.00;0.00;0.62;2.93;2.23;;;29.20;24.50;;;;;;2235617;62;20371;-62
2023/07/05 08:59:32;0.00;0.00;0.62;0.00;0.00;0.62;2.30;1.97;;;29.20;24.50;;;;;;2236224;62;20406;-64
2023/07/05 09:02:22;0.00;0.00;0.62;0.00;0.00;0.62;2.40;1.70;;;29.10;24.40;;;;;;2236179;62;20852;-63
2023/07/05 09:05:15;0.00;0.00;0.62;0.00;0.00;0.62;2.87;2.20;;;29.20;24.50;;;;;;2236185;62;20973;-63
2023/07/05 09:08:20;0.00;0.00;0.62;0.00;0.00;0.62;1.87;1.63;;;29.20;25.00;;;;;;2236755;62;20777;-63
2023/07/05 09:11:11;0.00;0.00;0.62;0.00;0.00;0.62;2.47;2.00;;;29.20;24.50;;;;;;2235617;62;20366;-63
2023/07/05 09:14:10;0.00;0.00;0.62;0.00;0.00;0.62;3.33;2.10;;;29.10;24.40;;;;;;2233367;62;20790;-63
2023/07/05 09:17:01;0.00;0.00;0.62;0.00;0.00;0.62;2.70;1.60;;;29.10;24.50;;;;;;2236397;62;20370;-63
2023/07/05 09:19:56;0.00;0.00;0.62;0.00;0.00;0.62;2.53;2.07;;;29.20;24.50;;;;;;2235943;62;20371;-63
2023/07/05 09:22:42;0.00;0.00;0.62;0.00;0.00;0.62;2.90;2.27;;;29.20;24.50;;;;;;2236384;62;20989;-66
2023/07/05 09:25:30;0.00;0.00;0.62;0.00;0.00;0.62;2.93;2.07;;;29.20;24.50;;;;;;2235711;62;20371;-63
2023/07/05 09:28:24;0.00;0.00;0.62;0.00;0.00;0.62;3.00;2.60;;;29.10;24.40;;;;;;2236376;62;20367;-63
2023/07/05 09:31:12;0.00;0.00;0.62;0.00;0.00;0.62;3.27;2.40;;;29.20;24.50;;;;;;2236333;62;20494;-63
2023/07/05 09:34:15;0.00;0.00;0.62;0.00;0.00;0.62;2.60;2.17;;;29.20;24.50;;;;;;2235687;62;20383;-63
2023/07/05 09:37:11;0.00;0.00;0.62;0.00;0.00;0.62;2.53;1.90;;;29.20;24.50;;;;;;2236638;62;20370;-64
2023/07/05 09:40:10;0.00;0.00;0.62;0.00;0.00;0.62;2.73;1.80;;;29.20;24.50;;;;;;2235446;62;20366;-63
2023/07/05 09:42:58;0.00;0.00;0.62;0.00;0.00;0.62;2.83;2.50;;;29.20;24.50;;;;;;2236269;62;20527;-64
2023/07/05 09:45:43;0.00;0.00;0.62;0.00;0.00;0.62;2.83;2.43;;;29.10;24.40;;;;;;2236454;62;20367;-64
2023/07/05 09:48:30;0.00;0.00;0.62;0.00;0.00;0.62;2.90;2.13;;;29.20;24.50;;;;;;2235337;62;20898;-64
2023/07/05 09:51:17;0.00;0.00;0.62;0.00;0.00;0.62;3.00;2.10;;;29.20;24.50;;;;;;2236308;62;20359;-64
2023/07/05 09:54:07;0.00;0.00;0.62;0.00;0.00;0.62;2.33;1.97;;;29.20;24.50;;;;;;2236290;62;20438;-63
2023/07/05 09:56:58;0.00;0.00;0.62;0.00;0.00;0.62;2.50;2.00;;;29.20;25.00;;;;;;2235991;62;20405;-63
2023/07/05 09:59:43;0.00;0.00;0.62;0.00;0.00;0.62;2.70;2.00;;;29.20;24.50;;;;;;2236015;62;20618;-63
2023/07/05 10:02:31;0.00;0.00;0.62;0.00;0.00;0.62;3.03;2.23;;;29.20;24.50;;;;;;2235423;61;20441;-64
2023/07/05 10:05:26;0.00;0.00;0.62;0.00;0.00;0.62;2.40;1.93;;;29.20;24.50;;;;;;2236347;62;20387;-60
2023/07/05 10:08:16;0.00;0.00;0.62;0.00;0.00;0.62;4.00;1.80;;;29.20;24.50;;;;;;2236342;62;20945;-64
2023/07/05 10:11:03;0.00;0.00;0.62;0.00;0.00;0.62;2.20;1.80;;;29.20;24.50;;;;;;2235429;62;20380;-63
2023/07/05 10:14:12;0.00;0.00;0.62;0.00;0.00;0.62;2.27;1.53;;;29.20;24.50;;;;;;2236098;62;20483;-64
2023/07/05 10:17:03;0.00;0.00;0.62;0.00;0.00;0.62;2.50;1.80;;;29.20;25.00;;;;;;2235704;62;20463;-64
2023/07/05 10:19:50;0.00;0.00;0.62;0.00;0.00;0.62;2.03;1.67;;;29.20;24.50;;;;;;2235747;62;20362;-64
2023/07/05 10:22:35;0.00;0.00;0.62;0.00;0.00;0.62;2.50;2.10;;;29.20;24.50;;;;;;2236024;62;20394;-64
2023/07/05 10:25:23;0.00;0.00;0.62;0.00;0.00;0.62;2.30;1.57;;;29.10;24.40;;;;;;2235406;62;20365;-64
2023/07/05 10:28:14;0.00;0.00;0.62;0.00;0.00;0.62;2.27;1.70;;;29.20;24.50;;;;;;2236255;62;20386;-63
2023/07/05 10:31:03;0.00;0.00;0.62;0.00;0.00;0.62;2.40;1.80;;;29.20;24.50;;;;;;2236335;62;20459;-63
2023/07/05 10:33:48;0.00;0.00;0.62;0.00;0.00;0.62;2.90;2.00;;;29.10;24.50;;;;;;2235947;62;20783;-68
2023/07/05 10:36:33;0.00;0.00;0.62;0.00;0.00;0.62;2.47;1.40;;;29.20;24.50;;;;;;2236125;62;20421;-64
2023/07/05 10:39:22;0.00;0.00;0.62;0.00;0.00;0.62;1.87;1.40;;;29.20;24.40;;;;;;2235054;62;20847;-63
2023/07/05 10:42:11;0.00;0.00;0.62;0.00;0.00;0.62;1.87;1.23;;;29.20;24.40;;;;;;2236356;62;20390;-62
2023/07/05 10:44:56;0.00;0.00;0.62;0.00;0.00;0.62;2.00;1.37;;;29.10;24.40;;;;;;2236145;62;20394;-62
2023/07/05 10:47:44;0.00;0.00;0.62;0.00;0.00;0.62;2.03;1.47;;;29.20;24.40;;;;;;2235488;62;20436;-62
2023/07/05 10:50:32;0.00;0.00;0.62;0.00;0.00;0.62;2.03;1.50;;;29.20;24.50;;;;;;2235979;62;20418;-63
2023/07/05 10:53:21;0.00;0.00;0.62;0.00;0.00;0.62;2.93;1.50;;;29.10;24.40;;;;;;2235742;62;20925;-62
2023/07/05 10:56:14;0.00;0.00;0.62;0.00;0.00;0.62;2.00;1.67;;;29.20;24.50;;;;;;2236065;62;20377;-64
2023/07/05 10:59:12;0.00;0.00;0.62;0.00;0.00;0.62;1.70;1.20;;;29.10;24.40;;;;;;2235789;62;20362;-63
2023/07/05 11:02:02;0.00;0.00;0.62;0.00;0.00;0.62;2.00;1.40;;;29.20;24.40;;;;;;2235207;62;20520;-62